Time,TemperatureF,DewpointF,PressureIn,WindDirection,WindDirectionDegrees,WindSpeedMPH,WindSpeedGustMPH,Humidity,HourlyPrecipIn,Conditions,Clouds,dailyrainin,SoftwareType,DateUTC
2013-08-29 00:13:00,80.3,75.0,29.92,SE,140,0.0,1.0,83,0.00,,,0.25,weatherlink.com 1.10,2013-08-29 04:13:00,
2013-08-29 00:28:00,79.6,74.0,29.92,ENE,78,0.0,2.0,83,0.00,,,0.25,weatherlink.com 1.10,2013-08-29 04:28:00,
2013-08-29 00:43:00,79.2,74.0,29.92,East,98,0.0,0.0,84,0.00,,,0.25,weatherlink.com 1.10,2013-08-29 04:43:00,
2013-08-29 00:58:00,78.8,74.0,29.92,ENE,78,0.0,3.0,85,0.00,,,0.25,weatherlink.com 1.10,2013-08-29 04:58:00,
2013-08-29 01:13:00,78.3,74.0,29.92,SSW,207,0.0,2.0,86,0.00,,,0.25,weatherlink.com 1.10,2013-08-29 05:13:00,
2013-08-29 01:28:00,78.0,74.0,29.92,SSW,207,0.0,0.0,87,0.00,,,0.25,weatherlink.com 1.10,2013-08-29 05:28:00,
2013-08-29 01:43:00,77.7,74.0,29.93,East,82,0.0,1.0,87,0.00,,,0.25,weatherlink.com 1.10,2013-08-29 05:43:00,
2013-08-29 01:58:00,77.4,73.0,29.93,East,82,0.0,2.0,87,0.00,,,0.25,weatherlink.com 1.10,2013-08-29 05:58:00,
2013-08-29 02:13:00,77.0,73.0,29.92,South,182,0.0,3.0,87,0.00,,,0.25,weatherlink.com 1.10,2013-08-29 06:13:00,
2013-08-29 02:28:00,76.7,73.0,29.92,East,82,0.0,1.0,88,0.00,,,0.25,weatherlink.com 1.10,2013-08-29 06:28:00,
2013-08-29 02:43:00,76.3,73.0,29.92,SE,136,0.0,2.0,88,0.00,,,0.25,weatherlink.com 1.10,2013-08-29 06:43:00,
2013-08-29 02:58:00,76.0,72.0,29.92,East,99,0.0,2.0,88,0.00,,,0.25,weatherlink.com 1.10,2013-08-29 06:58:00,
2013-08-29 03:13:00,75.7,72.0,29.92,East,93,1.0,3.0,89,0.00,,,0.25,weatherlink.com 1.10,2013-08-29 07:13:00,
2013-08-29 03:28:00,75.4,72.0,29.92,East,87,0.0,2.0,89,0.00,,,0.25,weatherlink.com 1.10,2013-08-29 07:28:00,
2013-08-29 03:43:00,75.0,72.0,29.93,ESE,103,0.0,3.0,89,0.00,,,0.25,weatherlink.com 1.10,2013-08-29 07:43:00,
2013-08-29 03:58:00,74.8,71.0,29.93,SSE,150,0.0,2.0,89,0.00,,,0.25,weatherlink.com 1.10,2013-08-29 07:58:00,
2013-08-29 04:13:00,74.4,71.0,29.93,SSE,150,0.0,1.0,90,0.00,,,0.25,weatherlink.com 1.10,2013-08-29 08:13:00,
2013-08-29 04:28:00,74.2,71.0,29.93,SSE,156,0.0,1.0,90,0.00,,,0.25,weatherlink.com 1.10,2013-08-29 08:28:00,
2013-08-29 04:43:00,74.0,71.0,29.93,SSE,156,0.0,1.0,90,0.00,,,0.25,weatherlink.com 1.10,2013-08-29 08:43:00,
2013-08-29 04:58:00,73.8,71.0,29.93,SE,126,0.0,1.0,90,0.00,,,0.25,weatherlink.com 1.10,2013-08-29 08:58:00,
2013-08-29 05:13:00,73.6,71.0,29.94,WSW,247,0.0,1.0,91,0.00,,,0.25,weatherlink.com 1.10,2013-08-29 09:13:00,
2013-08-29 05:28:00,73.4,71.0,29.94,ENE,76,0.0,2.0,91,0.00,,,0.25,weatherlink.com 1.10,2013-08-29 09:28:00,
2013-08-29 05:43:00,73.1,70.0,29.94,South,186,1.0,1.0,91,0.00,,,0.25,weatherlink.com 1.10,2013-08-29 09:43:00,
2013-08-29 05:58:00,73.0,70.0,29.94,East,98,0.0,2.0,91,0.00,,,0.25,weatherlink.com 1.10,2013-08-29 09:58:00,
2013-08-29 06:13:00,72.9,70.0,29.94,East,84,0.0,2.0,91,0.00,,,0.25,weatherlink.com 1.10,2013-08-29 10:13:00,
2013-08-29 06:28:00,72.8,70.0,29.94,SSE,158,0.0,2.0,91,0.00,,,0.25,weatherlink.com 1.10,2013-08-29 10:28:00,
2013-08-29 06:43:00,72.7,70.0,29.95,WSW,251,0.0,2.0,91,0.00,,,0.25,weatherlink.com 1.10,2013-08-29 10:43:00,
2013-08-29 06:58:00,72.6,70.0,29.96,South,185,0.0,1.0,92,0.00,,,0.25,weatherlink.com 1.10,2013-08-29 10:58:00,
2013-08-29 07:13:00,72.4,70.0,29.96,South,185,0.0,1.0,92,0.00,,,0.25,weatherlink.com 1.10,2013-08-29 11:13:00,
2013-08-29 07:28:00,72.4,70.0,29.97,SSE,165,0.0,0.0,92,0.00,,,0.25,weatherlink.com 1.10,2013-08-29 11:28:00,
2013-08-29 07:43:00,72.6,70.0,29.97,SSE,165,0.0,1.0,92,0.00,,,0.00,weatherlink.com 1.10,2013-08-29 11:43:00,
2013-08-29 07:58:00,73.0,71.0,29.98,South,173,1.0,2.0,92,0.00,,,0.00,weatherlink.com 1.10,2013-08-29 11:58:00,
2013-08-29 08:14:00,73.6,71.0,29.98,South,174,0.0,1.0,91,0.00,,,0.00,weatherlink.com 1.10,2013-08-29 12:14:00,
2013-08-29 08:29:00,74.4,71.0,29.98,SSE,149,0.0,1.0,90,0.00,,,0.00,weatherlink.com 1.10,2013-08-29 12:29:00,
2013-08-29 08:44:00,75.2,72.0,29.98,SSE,154,0.0,1.0,88,0.00,,,0.00,weatherlink.com 1.10,2013-08-29 12:44:00,
2013-08-29 08:59:00,75.8,72.0,29.98,SE,144,2.0,3.0,87,0.00,,,0.00,weatherlink.com 1.10,2013-08-29 12:59:00,
2013-08-29 09:14:00,77.0,72.0,29.98,East,99,1.0,2.0,85,0.00,,,0.00,weatherlink.com 1.10,2013-08-29 13:14:00,
2013-08-29 09:29:00,78.6,73.0,29.98,South,186,0.0,2.0,82,0.00,,,0.00,weatherlink.com 1.10,2013-08-29 13:29:00,
2013-08-29 09:44:00,79.9,73.0,29.98,SSE,167,1.0,2.0,80,0.00,,,0.00,weatherlink.com 1.10,2013-08-29 13:44:00,
2013-08-29 09:59:00,79.3,72.0,29.98,SSW,193,3.0,4.0,79,0.00,,,0.00,weatherlink.com 1.10,2013-08-29 13:59:00,
2013-08-29 10:14:00,79.5,73.0,29.99,South,177,0.0,4.0,80,0.00,,,0.00,weatherlink.com 1.10,2013-08-29 14:14:00,
2013-08-29 10:29:00,80.7,72.0,29.99,SSW,202,4.0,4.0,75,0.00,,,0.00,weatherlink.com 1.10,2013-08-29 14:29:00,
2013-08-29 10:44:00,79.3,72.0,29.99,South,190,0.0,4.0,79,0.00,,,0.00,weatherlink.com 1.10,2013-08-29 14:44:00,
2013-08-29 10:59:00,79.8,72.0,29.99,SSE,167,0.0,3.0,76,0.00,,,0.00,weatherlink.com 1.10,2013-08-29 14:59:00,
2013-08-29 11:14:00,80.3,72.0,30.00,South,180,0.0,4.0,76,0.00,,,0.00,weatherlink.com 1.10,2013-08-29 15:14:00,
2013-08-29 11:29:00,81.3,73.0,30.00,SSE,164,0.0,6.0,75,0.00,,,0.00,weatherlink.com 1.10,2013-08-29 15:29:00,
2013-08-29 11:44:00,81.6,72.0,30.00,South,173,0.0,3.0,73,0.00,,,0.00,weatherlink.com 1.10,2013-08-29 15:44:00,
2013-08-29 11:59:00,81.2,72.0,30.00,North,360,0.0,4.0,74,0.00,,,0.00,weatherlink.com 1.10,2013-08-29 15:59:00,
2013-08-29 12:14:00,82.3,72.0,30.00,ESE,105,0.0,5.0,72,0.00,,,0.00,weatherlink.com 1.10,2013-08-29 16:14:00,
2013-08-29 12:29:00,82.5,73.0,30.00,South,175,0.0,7.0,74,0.00,,,0.00,weatherlink.com 1.10,2013-08-29 16:29:00,
2013-08-29 12:44:00,82.2,73.0,30.00,ESE,112,0.0,2.0,73,0.00,,,0.00,weatherlink.com 1.10,2013-08-29 16:44:00,
2013-08-29 12:59:00,81.7,73.0,30.00,South,182,0.0,7.0,74,0.00,,,0.00,weatherlink.com 1.10,2013-08-29 16:59:00,
2013-08-29 13:14:00,81.7,73.0,30.00,South,186,2.0,7.0,76,0.00,,,0.00,weatherlink.com 1.10,2013-08-29 17:14:00,
2013-08-29 13:29:00,82.3,73.0,29.99,South,188,0.0,6.0,73,0.00,,,0.00,weatherlink.com 1.10,2013-08-29 17:29:00,
2013-08-29 13:44:00,82.4,73.0,30.00,SSE,166,4.0,6.0,73,0.00,,,0.00,weatherlink.com 1.10,2013-08-29 17:44:00,
2013-08-29 13:59:00,82.4,73.0,30.00,South,177,2.0,4.0,72,0.00,,,0.00,weatherlink.com 1.10,2013-08-29 17:59:00,
2013-08-29 14:14:00,82.4,73.0,29.99,South,177,0.0,6.0,72,0.00,,,0.00,weatherlink.com 1.10,2013-08-29 18:14:00,
2013-08-29 14:29:00,81.7,72.0,29.99,South,171,0.0,5.0,72,0.00,,,0.00,weatherlink.com 1.10,2013-08-29 18:29:00,
2013-08-29 14:44:00,82.7,72.0,29.99,SW,215,3.0,5.0,71,0.00,,,0.00,weatherlink.com 1.10,2013-08-29 18:44:00,
2013-08-29 14:59:00,83.7,72.0,29.98,SE,132,0.0,2.0,68,0.00,,,0.00,weatherlink.com 1.10,2013-08-29 18:59:00,
2013-08-29 15:14:00,84.5,71.0,29.98,SSE,153,0.0,3.0,65,0.00,,,0.00,weatherlink.com 1.10,2013-08-29 19:14:00,
2013-08-29 15:29:00,85.5,71.0,29.98,East,92,0.0,5.0,62,0.00,,,0.00,weatherlink.com 1.10,2013-08-29 19:29:00,
2013-08-29 15:44:00,85.5,71.0,29.97,SSE,150,0.0,5.0,63,0.00,,,0.00,weatherlink.com 1.10,2013-08-29 19:44:00,
2013-08-29 16:00:00,85.6,72.0,29.97,ESE,102,2.0,3.0,63,0.00,,,0.00,weatherlink.com 1.10,2013-08-29 20:00:00,
2013-08-29 16:15:00,85.7,72.0,29.96,SE,130,0.0,1.0,63,0.00,,,0.00,weatherlink.com 1.10,2013-08-29 20:15:00,
2013-08-29 16:30:00,86.7,72.0,29.96,South,191,2.0,3.0,61,0.00,,,0.00,weatherlink.com 1.10,2013-08-29 20:30:00,
2013-08-29 16:45:00,85.2,70.0,29.96,South,179,0.0,1.0,61,0.00,,,0.00,weatherlink.com 1.10,2013-08-29 20:45:00,
2013-08-29 17:00:00,86.4,72.0,29.96,SE,135,0.0,2.0,62,0.00,,,0.00,weatherlink.com 1.10,2013-08-29 21:00:00,
2013-08-29 17:15:00,86.4,71.0,29.96,ESE,105,0.0,2.0,61,0.00,,,0.00,weatherlink.com 1.10,2013-08-29 21:15:00,
2013-08-29 17:30:00,85.9,72.0,29.96,SSE,163,0.0,3.0,63,0.00,,,0.00,weatherlink.com 1.10,2013-08-29 21:30:00,
2013-08-29 17:45:00,85.8,72.0,29.96,East,90,0.0,2.0,63,0.00,,,0.00,weatherlink.com 1.10,2013-08-29 21:45:00,
2013-08-29 18:00:00,84.5,72.0,29.95,South,180,0.0,3.0,66,0.00,,,0.00,weatherlink.com 1.10,2013-08-29 22:00:00,
2013-08-29 18:15:00,83.5,71.0,29.95,NW,326,0.0,1.0,67,0.00,,,0.00,weatherlink.com 1.10,2013-08-29 22:15:00,
2013-08-29 18:30:00,82.6,72.0,29.95,SSE,153,0.0,3.0,70,0.00,,,0.00,weatherlink.com 1.10,2013-08-29 22:30:00,
2013-08-29 18:45:00,81.9,72.0,29.95,SSE,161,0.0,3.0,71,0.00,,,0.00,weatherlink.com 1.10,2013-08-29 22:45:00,
2013-08-29 19:00:00,81.4,72.0,29.95,South,173,0.0,6.0,72,0.00,,,0.00,weatherlink.com 1.10,2013-08-29 23:00:00,
2013-08-29 19:15:00,80.9,71.0,29.95,East,80,1.0,2.0,72,0.00,,,0.00,weatherlink.com 1.10,2013-08-29 23:15:00,
2013-08-29 19:30:00,80.5,71.0,29.95,ENE,76,0.0,2.0,73,0.00,,,0.00,weatherlink.com 1.10,2013-08-29 23:30:00,
2013-08-29 19:45:00,80.0,71.0,29.95,SSE,153,0.0,1.0,74,0.00,,,0.00,weatherlink.com 1.10,2013-08-29 23:45:00,
2013-08-29 20:00:00,79.4,71.0,29.96,ESE,105,0.0,1.0,75,0.00,,,0.00,weatherlink.com 1.10,2013-08-30 00:00:00,
2013-08-29 20:15:00,79.0,70.0,29.96,ESE,105,0.0,0.0,75,0.00,,,0.00,weatherlink.com 1.10,2013-08-30 00:15:00,
2013-08-29 20:30:00,78.7,70.0,29.96,ESE,105,0.0,0.0,75,0.00,,,0.00,weatherlink.com 1.10,2013-08-30 00:30:00,
2013-08-29 20:45:00,78.4,71.0,29.96,ESE,105,0.0,0.0,77,0.00,,,0.00,weatherlink.com 1.10,2013-08-30 00:45:00,
2013-08-29 21:00:00,77.9,70.0,29.97,ESE,105,0.0,0.0,77,0.00,,,0.00,weatherlink.com 1.10,2013-08-30 01:00:00,
2013-08-29 21:15:00,77.5,70.0,29.97,ESE,105,0.0,0.0,77,0.00,,,0.00,weatherlink.com 1.10,2013-08-30 01:15:00,
2013-08-29 21:30:00,77.1,70.0,29.97,ESE,105,0.0,0.0,78,0.00,,,0.00,weatherlink.com 1.10,2013-08-30 01:30:00,
2013-08-29 21:45:00,76.6,70.0,29.98,ESE,105,0.0,0.0,80,0.00,,,0.00,weatherlink.com 1.10,2013-08-30 01:45:00,
2013-08-29 22:00:00,76.2,70.0,29.98,ESE,105,0.0,0.0,81,0.00,,,0.00,weatherlink.com 1.10,2013-08-30 02:00:00,
2013-08-29 22:15:00,75.8,70.0,29.98,ESE,105,0.0,1.0,82,0.00,,,0.00,weatherlink.com 1.10,2013-08-30 02:15:00,
2013-08-29 22:30:00,75.4,70.0,29.98,ESE,105,0.0,0.0,83,0.00,,,0.00,weatherlink.com 1.10,2013-08-30 02:30:00,
2013-08-29 22:45:00,75.0,70.0,29.98,ESE,105,0.0,0.0,84,0.00,,,0.00,weatherlink.com 1.10,2013-08-30 02:45:00,
2013-08-29 23:00:00,74.7,70.0,29.98,ESE,105,0.0,0.0,85,0.00,,,0.00,weatherlink.com 1.10,2013-08-30 03:00:00,
2013-08-29 23:15:00,74.2,70.0,29.97,ESE,105,0.0,0.0,87,0.00,,,0.00,weatherlink.com 1.10,2013-08-30 03:15:00,
2013-08-29 23:30:00,73.7,70.0,29.97,ESE,105,0.0,0.0,88,0.00,,,0.00,weatherlink.com 1.10,2013-08-30 03:30:00,
2013-08-29 23:45:00,73.3,70.0,29.97,ESE,105,0.0,0.0,89,0.00,,,0.00,weatherlink.com 1.10,2013-08-30 03:45:00,